TimeCDT,TemperatureF,Dew PointF,Humidity,Sea Level PressureIn,VisibilityMPH,Wind Direction,Wind SpeedMPH,Gust SpeedMPH,PrecipitationIn,Events,Conditions,WindDirDegrees,DateUTC
12:53 AM,73.0,69.1,87,29.99,10.0,Calm,Calm,-,N/A,,Clear,0,2013-08-01 05:53:00
1:53 AM,72.0,69.1,91,29.99,10.0,NNW,3.5,-,N/A,,Overcast,330,2013-08-01 06:53:00
2:53 AM,71.1,68.0,90,29.98,10.0,NNW,4.6,-,N/A,,Mostly Cloudy,330,2013-08-01 07:53:00
3:53 AM,69.1,66.9,93,29.98,8.0,NW,3.5,-,N/A,,Clear,320,2013-08-01 08:53:00
4:53 AM,68.0,66.0,93,29.99,7.0,Calm,Calm,-,N/A,,Clear,0,2013-08-01 09:53:00
5:53 AM,66.0,64.9,96,30.01,5.0,Calm,Calm,-,N/A,,Clear,0,2013-08-01 10:53:00
6:53 AM,66.9,66.0,97,30.03,4.0,Calm,Calm,-,N/A,,Clear,0,2013-08-01 11:53:00
7:53 AM,71.1,68.0,90,30.03,7.0,North,6.9,-,N/A,,Clear,360,2013-08-01 12:53:00
8:25 AM,73.4,68.0,83,30.06,9.0,NNE,8.1,-,N/A,,Mostly Cloudy,20,2013-08-01 13:25:00
8:49 AM,73.4,68.0,83,30.07,9.0,NNE,6.9,-,N/A,,Scattered Clouds,20,2013-08-01 13:49:00
8:53 AM,73.0,68.0,84,30.06,8.0,NNE,8.1,-,N/A,,Partly Cloudy,30,2013-08-01 13:53:00
9:53 AM,75.9,68.0,76,30.06,10.0,North,6.9,-,N/A,,Clear,360,2013-08-01 14:53:00
10:53 AM,79.0,68.0,69,30.06,10.0,Variable,6.9,-,N/A,,Partly Cloudy,0,2013-08-01 15:53:00
11:53 AM,78.1,66.9,68,30.05,10.0,North,6.9,-,N/A,,Mostly Cloudy,360,2013-08-01 16:53:00
12:53 PM,82.0,66.9,60,30.04,10.0,Variable,4.6,-,N/A,,Partly Cloudy,0,2013-08-01 17:53:00
1:53 PM,84.0,66.9,56,30.02,10.0,North,10.4,-,N/A,,Partly Cloudy,10,2013-08-01 18:53:00
2:53 PM,82.0,66.0,58,30.01,10.0,NNW,5.8,-,N/A,,Clear,340,2013-08-01 19:53:00
3:53 PM,86.0,66.0,51,30.00,10.0,North,5.8,-,N/A,,Partly Cloudy,10,2013-08-01 20:53:00
4:53 PM,86.0,64.9,49,29.99,10.0,North,8.1,-,N/A,,Clear,360,2013-08-01 21:53:00
5:53 PM,84.0,62.1,47,29.99,10.0,North,9.2,-,N/A,,Clear,350,2013-08-01 22:53:00
6:53 PM,82.0,63.0,52,29.98,10.0,North,5.8,-,N/A,,Clear,360,2013-08-01 23:53:00
7:53 PM,75.9,64.0,67,29.99,10.0,Calm,Calm,-,N/A,,Clear,0,2013-08-02 00:53:00
8:53 PM,70.0,64.9,84,29.99,10.0,Calm,Calm,-,N/A,,Clear,0,2013-08-02 01:53:00
9:53 PM,66.9,64.0,90,30.00,10.0,Calm,Calm,-,N/A,,Clear,0,2013-08-02 02:53:00
10:53 PM,66.0,64.0,93,30.00,10.0,Calm,Calm,-,N/A,,Clear,0,2013-08-02 03:53:00
11:53 PM,64.0,63.0,96,30.01,9.0,Calm,Calm,-,N/A,,Clear,0,2013-08-02 04:53:00